createdAt,value
2018-04-27T00:00:33.215Z,1.97
2018-04-27T00:03:00.818Z,1.97
2018-04-27T00:05:28.454Z,2.10
2018-04-27T00:07:56.764Z,2.17
2018-04-27T00:10:24.412Z,2.03
2018-04-27T00:12:52.116Z,1.90
2018-04-27T00:15:20.319Z,1.90
2018-04-27T00:17:47.911Z,2.00
2018-04-27T00:20:15.483Z,2.10
2018-04-27T00:22:43.552Z,1.83
2018-04-27T00:25:11.130Z,1.80
2018-04-27T00:27:39.094Z,1.93
2018-04-27T00:30:07.139Z,2.20
2018-04-27T00:32:35.082Z,1.97
2018-04-27T00:35:02.725Z,1.63
2018-04-27T00:37:31.089Z,2.03
2018-04-27T00:39:58.649Z,2.10
2018-04-27T00:42:26.247Z,1.93
2018-04-27T00:44:53.892Z,1.90
2018-04-27T00:47:22.071Z,1.77
2018-04-27T00:49:49.692Z,2.30
2018-04-27T00:52:17.694Z,2.03
2018-04-27T00:54:45.318Z,1.93
2018-04-27T00:57:12.913Z,2.30
2018-04-27T00:59:40.550Z,1.80
2018-04-27T01:02:08.123Z,1.90
2018-04-27T01:04:35.833Z,1.80
2018-04-27T01:07:03.691Z,2.30
2018-04-27T01:09:32.211Z,1.70
2018-04-27T01:11:59.790Z,1.67
2018-04-27T01:14:27.371Z,2.30
2018-04-27T01:16:55.506Z,1.80
2018-04-27T01:19:24.137Z,1.93
2018-04-27T01:21:52.606Z,1.90
2018-04-27T01:24:20.255Z,2.03
2018-04-27T01:26:48.716Z,2.10
2018-04-27T01:29:16.314Z,2.37
2018-04-27T01:31:44.660Z,2.13
2018-04-27T01:34:12.270Z,2.03
2018-04-27T01:36:39.841Z,2.00
2018-04-27T01:39:07.867Z,2.20
2018-04-27T01:41:35.476Z,2.03
2018-04-27T01:44:03.013Z,1.90
2018-04-27T01:46:30.819Z,2.60
2018-04-27T01:48:58.368Z,2.33
2018-04-27T01:51:26.532Z,2.07
2018-04-27T01:53:54.555Z,2.20
2018-04-27T01:56:22.573Z,2.20
2018-04-27T01:58:50.759Z,1.80
2018-04-27T02:01:18.419Z,2.20
2018-04-27T02:03:46.015Z,2.20
2018-04-27T02:06:13.661Z,2.27
2018-04-27T02:08:41.372Z,2.20
2018-04-27T02:11:10.135Z,2.30
2018-04-27T02:13:37.685Z,2.10
2018-04-27T02:16:05.310Z,2.30
2018-04-27T02:18:32.890Z,2.37
2018-04-27T02:21:00.502Z,2.37
2018-04-27T02:23:28.138Z,2.13
2018-04-27T02:25:55.734Z,2.13
2018-04-27T02:28:23.425Z,1.90
2018-04-27T02:30:51.018Z,2.00
2018-04-27T02:33:19.294Z,2.10
2018-04-27T02:35:46.936Z,1.90
2018-04-27T02:38:14.565Z,2.40
2018-04-27T02:40:42.204Z,1.83
2018-04-27T02:43:09.832Z,1.90
2018-04-27T02:45:37.755Z,2.03
2018-04-27T02:48:05.319Z,2.30
2018-04-27T02:50:33.383Z,2.20
2018-04-27T02:53:00.982Z,2.10
2018-04-27T02:55:28.595Z,1.83
2018-04-27T02:57:56.192Z,2.10
2018-04-27T03:00:23.792Z,2.00
2018-04-27T03:02:51.440Z,1.97
2018-04-27T03:05:19.316Z,1.80
2018-04-27T03:07:48.735Z,1.80
2018-04-27T03:10:17.254Z,1.80
2018-04-27T03:12:44.926Z,1.90
2018-04-27T03:15:13.360Z,1.90
2018-04-27T03:17:41.301Z,1.70
2018-04-27T03:20:08.880Z,1.93
2018-04-27T03:22:37.305Z,1.80
2018-04-27T03:25:04.862Z,2.00
2018-04-27T03:27:32.980Z,1.93
2018-04-27T03:30:00.682Z,2.10
2018-04-27T03:32:28.277Z,2.10
2018-04-27T03:34:56.336Z,1.97
2018-04-27T03:37:24.008Z,1.80
2018-04-27T03:39:51.664Z,1.60
2018-04-27T03:42:20.924Z,1.70
2018-04-27T03:44:48.556Z,1.80
2018-04-27T03:47:16.155Z,1.80
2018-04-27T03:49:43.857Z,1.90
2018-04-27T03:52:11.496Z,1.93
2018-04-27T03:54:39.074Z,2.00
2018-04-27T03:57:06.708Z,2.03
2018-04-27T03:59:46.211Z,2.17
2018-04-27T04:02:25.528Z,1.90
2018-04-27T04:05:04.914Z,1.70
2018-04-27T04:07:32.601Z,1.97
2018-04-27T04:10:00.974Z,1.93
2018-04-27T04:12:28.575Z,2.10
2018-04-27T04:14:56.118Z,2.20
2018-04-27T04:17:23.671Z,1.90
2018-04-27T04:19:51.215Z,2.70
2018-04-27T04:22:18.803Z,2.00
2018-04-27T04:24:46.400Z,2.10
2018-04-27T04:27:14.047Z,1.90
2018-04-27T04:29:42.452Z,2.30
2018-04-27T04:32:10.395Z,2.00
2018-04-27T04:34:37.987Z,1.90
2018-04-27T04:37:05.984Z,1.90
2018-04-27T04:39:33.548Z,1.83
2018-04-27T04:42:01.146Z,1.90
2018-04-27T04:44:28.708Z,1.73
2018-04-27T04:46:56.314Z,1.90
2018-04-27T04:49:23.842Z,1.90
2018-04-27T04:51:51.435Z,1.80
2018-04-27T04:54:19.020Z,2.13
2018-04-27T04:56:46.634Z,2.03
2018-04-27T04:59:14.267Z,2.17
2018-04-27T05:01:41.845Z,2.20
2018-04-27T05:04:09.422Z,1.97
2018-04-27T05:06:37.043Z,1.80
2018-04-27T05:09:04.680Z,2.00
2018-04-27T05:11:32.279Z,2.20
2018-04-27T05:13:59.907Z,2.23
2018-04-27T05:16:27.479Z,2.13
2018-04-27T05:18:56.819Z,2.17
2018-04-27T05:21:24.401Z,2.53
2018-04-27T05:23:51.958Z,2.40
2018-04-27T05:26:19.511Z,2.20
2018-04-27T05:28:47.078Z,2.30
2018-04-27T05:31:25.313Z,2.47
2018-04-27T05:33:52.944Z,2.10
2018-04-27T05:36:20.582Z,2.30
2018-04-27T05:38:48.190Z,2.73
2018-04-27T05:41:15.751Z,2.33
2018-04-27T05:43:43.323Z,2.27
2018-04-27T05:46:10.887Z,2.33
2018-04-27T05:48:38.498Z,2.30
2018-04-27T05:51:06.200Z,2.47
2018-04-27T05:53:33.752Z,2.50
2018-04-27T05:56:01.311Z,2.43
2018-04-27T05:58:28.905Z,2.40
2018-04-27T06:00:56.456Z,2.37
2018-04-27T06:03:24.032Z,2.37
2018-04-27T06:05:51.653Z,2.60
2018-04-27T06:08:19.690Z,2.70
2018-04-27T06:10:47.265Z,2.53
2018-04-27T06:13:14.883Z,2.73
2018-04-27T06:15:42.468Z,2.23
2018-04-27T06:18:10.068Z,2.20
2018-04-27T06:20:38.039Z,2.23
2018-04-27T06:23:05.592Z,2.30
2018-04-27T06:25:33.179Z,2.47
2018-04-27T06:28:00.806Z,3.90
2018-04-27T06:30:28.475Z,4.30
2018-04-27T06:32:56.440Z,3.20
2018-04-27T06:35:24.399Z,2.50
2018-04-27T06:37:52.020Z,2.53
2018-04-27T06:40:19.571Z,2.50
2018-04-27T06:42:47.146Z,2.50
2018-04-27T06:45:14.724Z,2.87
2018-04-27T06:47:42.303Z,2.67
2018-04-27T06:50:10.415Z,2.17
2018-04-27T06:52:38.443Z,2.40
2018-04-27T06:55:06.079Z,3.00
2018-04-27T06:57:34.027Z,2.63
2018-04-27T07:00:01.620Z,2.50
2018-04-27T07:02:29.204Z,2.80
2018-04-27T07:04:56.795Z,3.20
2018-04-27T07:07:26.400Z,2.83
2018-04-27T07:09:56.658Z,2.83
2018-04-27T07:12:24.248Z,2.77
2018-04-27T07:14:51.832Z,3.07
2018-04-27T07:17:19.374Z,2.50
2018-04-27T07:19:46.985Z,2.73
2018-04-27T07:22:14.543Z,2.23
2018-04-27T07:24:42.159Z,2.27
2018-04-27T07:27:09.709Z,2.60
2018-04-27T07:29:37.294Z,2.03
2018-04-27T07:32:04.842Z,1.70
2018-04-27T07:34:32.446Z,1.90
2018-04-27T07:37:00.039Z,1.70
2018-04-27T07:39:27.658Z,1.97
2018-04-27T07:41:58.962Z,2.13
2018-04-27T07:44:26.587Z,1.40
2018-04-27T07:46:54.152Z,1.83
2018-04-27T07:49:21.961Z,1.63
2018-04-27T07:51:49.502Z,1.80
2018-04-27T07:54:17.120Z,1.63
2018-04-27T07:56:44.696Z,1.30
2018-04-27T07:59:12.286Z,1.40
2018-04-27T08:01:57.561Z,1.53
2018-04-27T08:04:25.155Z,1.40
2018-04-27T08:06:52.795Z,1.40
2018-04-27T08:09:20.392Z,1.27
2018-04-27T08:11:48.023Z,1.30
2018-04-27T08:14:22.289Z,1.50
2018-04-27T08:16:49.878Z,1.40
2018-04-27T08:19:17.529Z,1.50
2018-04-27T08:21:45.115Z,1.37
2018-04-27T08:24:12.730Z,1.47
2018-04-27T08:26:40.288Z,1.20
2018-04-27T08:29:07.866Z,1.67
2018-04-27T08:31:35.440Z,1.60
2018-04-27T08:34:02.985Z,1.30
2018-04-27T08:36:30.562Z,1.30
2018-04-27T08:38:58.152Z,1.53
2018-04-27T08:41:25.763Z,1.53
2018-04-27T08:43:53.376Z,1.53
2018-04-27T10:01:13.228Z,1.47
2018-04-27T10:03:40.850Z,1.43
2018-04-27T10:06:08.471Z,1.50
2018-04-27T10:08:36.046Z,1.70
2018-04-27T10:11:03.602Z,1.77
2018-04-27T10:13:33.262Z,1.73
2018-04-27T10:16:00.872Z,1.17
2018-04-27T10:18:28.414Z,1.30
2018-04-27T10:20:55.994Z,1.20
2018-04-27T10:23:23.565Z,1.53
2018-04-27T10:25:51.184Z,1.40
2018-04-27T10:28:18.747Z,1.30
2018-04-27T10:30:46.362Z,1.30
2018-04-27T10:33:13.934Z,1.90
2018-04-27T10:35:41.629Z,1.60
2018-04-27T10:38:09.213Z,1.50
2018-04-27T10:40:36.827Z,1.20
2018-04-27T10:43:04.382Z,1.33
2018-04-27T10:45:31.914Z,1.40
2018-04-27T10:47:59.460Z,1.60
2018-04-27T10:50:27.040Z,1.47
2018-04-27T10:52:54.632Z,1.47
2018-04-27T10:55:22.176Z,1.30
2018-04-27T10:57:49.766Z,1.37
2018-04-27T11:00:17.322Z,1.50
2018-04-27T11:02:44.895Z,1.30
2018-04-27T11:05:12.430Z,1.30
2018-04-27T11:07:40.008Z,1.70
2018-04-27T11:10:07.583Z,1.30
2018-04-27T11:12:35.571Z,1.57
2018-04-27T11:15:03.119Z,1.33
2018-04-27T11:17:31.071Z,1.13
2018-04-27T11:19:58.619Z,1.20
2018-04-27T11:22:26.213Z,1.63
2018-04-27T11:24:53.757Z,1.43
2018-04-27T11:27:21.329Z,1.50
2018-04-27T11:29:48.887Z,1.33
2018-04-27T11:32:16.481Z,1.30
2018-04-27T11:34:44.081Z,1.60
2018-04-27T11:37:11.703Z,1.40
2018-04-27T11:39:39.316Z,1.43
2018-04-27T11:42:06.937Z,1.30
2018-04-27T11:44:34.674Z,1.60
2018-04-27T11:47:02.310Z,1.40
2018-04-27T11:49:29.891Z,1.40
2018-04-27T11:51:57.546Z,1.30
2018-04-27T11:54:25.106Z,1.50
2018-04-27T11:56:52.744Z,1.40
2018-04-27T11:59:20.319Z,1.27
2018-04-27T12:01:47.944Z,1.50
2018-04-27T12:04:15.891Z,1.63
2018-04-27T12:06:43.490Z,1.67
2018-04-27T12:09:11.098Z,1.37
2018-04-27T12:11:38.787Z,1.63
2018-04-27T12:14:06.414Z,1.33
2018-04-27T12:16:34.082Z,1.30
2018-04-27T12:19:01.663Z,1.33
2018-04-27T12:21:29.652Z,1.50
2018-04-27T12:23:57.240Z,1.40
2018-04-27T12:26:24.792Z,1.20
2018-04-27T12:28:54.448Z,1.60
2018-04-27T12:31:22.138Z,1.10
2018-04-27T12:33:49.623Z,1.40
2018-04-27T12:36:17.194Z,1.60
2018-04-27T12:38:44.750Z,1.43
2018-04-27T12:41:12.322Z,1.10
2018-04-27T12:43:39.913Z,1.30
2018-04-27T12:46:19.124Z,1.20
2018-04-27T12:48:46.716Z,1.43
2018-04-27T12:51:14.292Z,1.20
2018-04-27T12:53:41.892Z,1.50
2018-04-27T12:56:09.459Z,1.10
2018-04-27T12:58:39.529Z,1.60
2018-04-27T13:01:07.110Z,1.40
2018-04-27T13:03:34.682Z,1.50
2018-04-27T13:06:02.241Z,1.20
2018-04-27T13:08:30.829Z,1.10
2018-04-27T13:11:02.637Z,1.20
2018-04-27T13:13:31.543Z,1.30
2018-04-27T13:16:00.336Z,1.07
2018-04-27T13:18:31.460Z,1.00
2018-04-27T13:21:02.879Z,1.30
2018-04-27T13:23:37.054Z,1.63
2018-04-27T13:26:04.600Z,1.10
2018-04-27T13:28:32.233Z,1.10
2018-04-27T13:31:04.052Z,1.37
2018-04-27T13:33:33.321Z,1.10
2018-04-27T13:36:00.864Z,1.20
2018-04-27T13:38:31.499Z,1.47
2018-04-27T13:41:00.981Z,1.03
2018-04-27T13:43:29.251Z,1.00
2018-04-27T13:45:58.083Z,1.40
2018-04-27T13:48:25.632Z,1.13
2018-04-27T13:50:53.212Z,1.10
2018-04-27T13:53:20.770Z,1.20
2018-04-27T13:55:49.214Z,0.90
2018-04-27T13:58:17.425Z,1.20
2018-04-27T14:00:45.034Z,0.87
2018-04-27T14:03:12.874Z,1.40
2018-04-27T14:05:40.452Z,1.10
2018-04-27T14:08:08.953Z,1.30
2018-04-27T14:10:36.540Z,1.10
2018-04-27T14:13:04.169Z,1.23
2018-04-27T14:15:33.722Z,1.13
2018-04-27T14:18:02.447Z,1.13
2018-04-27T14:20:29.983Z,1.07
2018-04-27T14:22:57.547Z,1.30
2018-04-27T14:25:25.118Z,1.33
2018-04-27T14:27:52.690Z,1.20
2018-04-27T14:30:20.236Z,1.10
2018-04-27T14:32:47.802Z,1.20
2018-04-27T14:35:15.334Z,1.20
2018-04-27T14:37:42.918Z,1.10
2018-04-27T14:40:10.462Z,1.30
2018-04-27T14:42:38.020Z,1.10
2018-04-27T14:45:05.614Z,1.23
2018-04-27T14:47:34.301Z,1.07
2018-04-27T14:50:01.944Z,1.20
2018-04-27T14:52:29.565Z,1.10
2018-04-27T14:54:57.081Z,1.30
2018-04-27T14:57:34.547Z,1.20
2018-04-27T15:00:02.835Z,1.13
2018-04-27T15:02:31.292Z,1.07
2018-04-27T15:04:59.167Z,1.43
2018-04-27T15:07:27.005Z,1.20
2018-04-27T15:09:54.610Z,1.60
2018-04-27T15:12:22.228Z,1.40
2018-04-27T15:14:49.799Z,1.03
2018-04-27T15:17:17.327Z,1.17
2018-04-27T15:19:45.300Z,1.50
2018-04-27T15:22:12.856Z,1.30
2018-04-27T15:24:40.814Z,1.23
2018-04-27T15:27:08.393Z,1.20
2018-04-27T15:29:35.967Z,0.80
2018-04-27T15:32:03.513Z,1.30
2018-04-27T15:34:31.110Z,1.40
2018-04-27T15:36:58.675Z,1.07
2018-04-27T15:39:26.286Z,1.30
2018-04-27T15:41:53.872Z,1.00
2018-04-27T15:44:21.450Z,1.20
2018-04-27T15:46:49.037Z,1.10
2018-04-27T15:49:17.474Z,1.10
2018-04-27T15:51:45.164Z,0.83
2018-04-27T15:54:12.759Z,1.40
2018-04-27T15:56:40.341Z,1.10
2018-04-27T15:59:07.932Z,1.50
2018-04-27T16:01:35.524Z,0.90
2018-04-27T16:04:03.498Z,1.20
2018-04-27T16:06:32.995Z,1.33
2018-04-27T16:09:00.683Z,1.00
2018-04-27T16:11:28.221Z,1.27
2018-04-27T16:13:56.630Z,1.10
2018-04-27T16:16:24.222Z,1.10
2018-04-27T16:18:51.821Z,1.20
2018-04-27T16:21:19.490Z,1.13
2018-04-27T16:23:47.001Z,1.13
2018-04-27T16:26:15.651Z,0.93
2018-04-27T16:28:43.252Z,1.50
2018-04-27T16:31:10.836Z,1.80
2018-04-27T16:33:46.756Z,1.20
2018-04-27T16:36:14.315Z,1.10
2018-04-27T16:38:41.897Z,1.13
2018-04-27T16:41:09.538Z,1.50
2018-04-27T16:43:37.095Z,1.43
2018-04-27T16:46:12.672Z,1.20
2018-04-27T16:48:40.227Z,1.50
2018-04-27T16:51:08.913Z,1.33
2018-04-27T16:53:38.482Z,1.20
2018-04-27T16:56:06.124Z,1.60
2018-04-27T16:58:34.080Z,2.10
2018-04-27T17:01:02.147Z,1.73
2018-04-27T17:03:30.829Z,1.90
2018-04-27T17:05:58.476Z,2.50
2018-04-27T17:08:26.088Z,2.10
2018-04-27T17:10:53.698Z,1.33
2018-04-27T17:13:21.268Z,1.40
2018-04-27T17:15:49.272Z,1.30
2018-04-27T17:18:16.967Z,1.40
2018-04-27T17:20:44.585Z,1.77
2018-04-27T17:23:12.188Z,1.27
2018-04-27T17:25:39.999Z,1.37
2018-04-27T17:28:07.546Z,1.80
2018-04-27T17:30:35.146Z,1.37
2018-04-27T17:33:02.733Z,1.83
2018-04-27T17:35:30.325Z,1.63
2018-04-27T17:37:57.882Z,2.47
2018-04-27T17:40:25.497Z,2.10
2018-04-27T17:42:53.336Z,1.50
2018-04-27T17:45:20.965Z,1.60
2018-04-27T17:47:49.435Z,1.53
2018-04-27T17:50:17.044Z,1.30
2018-04-27T17:52:44.692Z,1.80
2018-04-27T17:55:12.300Z,1.50
2018-04-27T17:57:41.235Z,1.90
2018-04-27T18:00:08.895Z,4.33
2018-04-27T18:02:37.241Z,4.70
2018-04-27T18:05:05.008Z,2.10
2018-04-27T18:07:32.960Z,2.93
2018-04-27T18:10:00.895Z,2.10
2018-04-27T18:12:29.162Z,1.43
2018-04-27T18:14:56.875Z,1.90
2018-04-27T18:17:24.538Z,2.07
2018-04-27T18:19:52.090Z,1.67
2018-04-27T18:22:19.638Z,1.43
2018-04-27T18:24:47.203Z,1.60
2018-04-27T18:27:14.814Z,1.67
2018-04-27T18:29:42.452Z,1.67
2018-04-27T18:32:10.173Z,1.87
2018-04-27T18:34:37.728Z,1.77
2018-04-27T18:37:10.042Z,2.03
2018-04-27T18:39:37.594Z,2.67
2018-04-27T18:42:05.206Z,3.60
2018-04-27T18:44:32.851Z,2.70
2018-04-27T18:47:00.489Z,2.30
2018-04-27T18:49:28.048Z,1.80
2018-04-27T18:51:55.678Z,1.93
2018-04-27T18:54:23.238Z,2.17
2018-04-27T18:56:51.001Z,1.90
2018-04-27T18:59:18.577Z,2.50
2018-04-27T19:01:46.181Z,2.23
2018-04-27T19:04:15.671Z,3.03
2018-04-27T19:06:43.229Z,2.27
2018-04-27T19:09:11.188Z,2.53
2018-04-27T19:11:39.470Z,2.20
2018-04-27T19:14:07.031Z,2.60
2018-04-27T19:16:34.611Z,2.37
2018-04-27T19:19:02.206Z,2.17
2018-04-27T19:21:29.804Z,2.23
2018-04-27T19:26:51.982Z,2.17
2018-04-27T19:29:19.564Z,2.20
2018-04-27T19:31:50.639Z,2.00
2018-04-27T19:34:29.984Z,2.43
2018-04-27T19:36:57.569Z,2.07
2018-04-27T19:39:25.146Z,2.27
2018-04-27T19:41:52.702Z,2.03
2018-04-27T19:44:20.248Z,2.33
2018-04-27T19:46:59.908Z,2.30
2018-04-27T19:49:27.479Z,1.53
2018-04-27T19:51:55.087Z,1.90
2018-04-27T19:54:22.646Z,1.70
2018-04-27T19:56:50.622Z,1.40
2018-04-27T19:59:18.174Z,2.13
2018-04-27T20:01:46.114Z,2.20
2018-04-27T20:04:13.710Z,2.40
2018-04-27T20:06:41.807Z,2.37
2018-04-27T20:09:09.441Z,1.90
2018-04-27T20:11:37.117Z,2.77
2018-04-27T20:14:04.746Z,3.20
2018-04-27T20:19:37.187Z,2.50
2018-04-27T20:22:16.635Z,2.03
2018-04-27T20:24:44.198Z,2.13
2018-04-27T20:27:11.753Z,2.20
2018-04-27T20:29:39.466Z,2.57
2018-04-27T20:32:07.016Z,2.27
2018-04-27T20:34:34.640Z,2.73
2018-04-27T20:37:02.296Z,2.20
2018-04-27T20:39:29.868Z,2.07
2018-04-27T20:41:57.443Z,2.10
2018-04-27T20:44:25.571Z,2.30
2018-04-27T20:46:53.613Z,2.60
2018-04-27T20:49:21.160Z,2.27
2018-04-27T20:51:50.493Z,2.20
2018-04-27T20:54:18.071Z,2.00
2018-04-27T20:56:49.854Z,2.00
2018-04-27T20:59:17.843Z,2.07
2018-04-27T21:01:45.445Z,1.80
2018-04-27T21:04:13.023Z,2.20
2018-04-27T21:06:40.619Z,1.90
2018-04-27T21:09:09.109Z,1.93
2018-04-27T21:11:37.425Z,1.80
2018-04-27T21:14:05.108Z,2.00
2018-04-27T21:16:32.628Z,2.63
2018-04-27T21:19:00.215Z,2.43
2018-04-27T21:21:27.758Z,1.80
2018-04-27T21:23:55.382Z,1.90
2018-04-27T21:26:24.571Z,1.90
2018-04-27T21:28:54.233Z,2.00
2018-04-27T21:31:21.839Z,2.23
2018-04-27T21:33:52.874Z,2.13
2018-04-27T21:36:35.392Z,2.63
2018-04-27T21:39:28.518Z,2.20
2018-04-27T21:42:00.832Z,2.30
2018-04-27T21:44:36.273Z,1.93
2018-04-27T21:50:09.365Z,1.87
2018-04-27T21:52:37.677Z,2.40
2018-04-27T21:55:06.141Z,2.00
2018-04-27T21:57:36.617Z,2.60
2018-04-27T22:00:06.912Z,1.93
2018-04-27T22:02:50.826Z,1.80
2018-04-27T22:08:35.102Z,1.27
2018-04-27T22:11:07.030Z,1.50
2018-04-27T22:13:34.650Z,1.47
2018-04-27T22:16:02.254Z,1.47
2018-04-27T22:18:30.638Z,1.20
2018-04-27T22:20:58.202Z,1.60
2018-04-27T22:23:28.616Z,0.97
2018-04-27T22:25:56.192Z,1.20
2018-04-27T22:28:27.151Z,1.03
2018-04-27T22:30:55.624Z,1.27
2018-04-27T22:36:29.928Z,1.00
2018-04-27T22:39:17.116Z,1.27
2018-04-27T22:42:10.742Z,1.27
2018-04-27T22:47:41.211Z,1.30
2018-04-27T22:50:08.836Z,1.20
2018-04-27T22:52:37.089Z,1.50
2018-04-27T22:55:08.368Z,1.10
2018-04-27T22:57:36.855Z,1.13
2018-04-27T23:00:10.266Z,1.20
2018-04-27T23:02:37.851Z,1.00
2018-04-27T23:05:22.932Z,1.43
2018-04-27T23:07:51.329Z,1.23
2018-04-27T23:10:20.718Z,1.10
2018-04-27T23:13:05.056Z,1.10
2018-04-27T23:15:42.594Z,1.00
2018-04-27T23:18:22.901Z,1.20
2018-04-27T23:20:52.262Z,1.20
2018-04-27T23:23:19.999Z,1.10
2018-04-27T23:25:48.602Z,1.40
2018-04-27T23:28:16.890Z,1.20
2018-04-27T23:30:44.620Z,1.43
2018-04-27T23:33:14.047Z,0.93
2018-04-27T23:35:42.309Z,1.10
2018-04-27T23:38:09.835Z,1.00
2018-04-27T23:40:37.408Z,1.07
2018-04-27T23:43:07.221Z,1.00
2018-04-27T23:45:35.498Z,0.90
2018-04-27T23:48:03.052Z,1.13
2018-04-27T23:50:30.610Z,1.13
2018-04-27T23:52:58.157Z,0.90
2018-04-27T23:55:25.736Z,1.47
2018-04-27T23:57:53.297Z,1.53
